Terminal Aerodrome Forecast
Issued by NWS

Home | Current Version | Previous Version | Text Only | Print | Product List | Glossary On
Versions: 1 2 3 4 5 6 7 8 9 10 11 12 13
000
FTUS42 TJSJ 042300
TAFIST
TAF
TIST 042340Z 0500/0524 08012KT P6SM VCSH FEW025
     FM051300 11015G25KT P6SM FEW025
     FM052330 09012KT P6SM SCT030
      AMD NOT SKED=

USA.gov is the U.S. government's official web portal to all federal, state and local government web resources and services.